Time;durP1;ratioP1;P1;durP2;ratioP2;P2;SDS_P1;SDS_P2;PMS_P1;PMS_P2;Temp;Humidity;BMP_temperature;BMP_pressure;BME280_temperature;BME280_humidity;BME280_pressure;Samples;Min_cycle;Max_cycle;Signal;HPM_P1;HPM_P2
2022/10/28 00:01:28;;;;;;;23.43;14.97;;;;;;;6.91;97.16;100007.70;2173317;81;20983;-85
2022/10/28 00:04:28;;;;;;;15.97;12.67;;;;;;;6.89;96.96;100002.84;2172830;81;20948;-86
2022/10/28 00:07:29;;;;;;;33.00;13.43;;;;;;;6.84;96.65;99999.16;2173600;81;20942;-85
2022/10/28 00:10:29;;;;;;;22.00;13.07;;;;;;;6.80;96.51;99993.76;2173869;81;21410;-84
2022/10/28 00:13:30;;;;;;;49.10;13.60;;;;;;;6.76;96.35;99996.62;2173688;81;21371;-84
2022/10/28 00:16:30;;;;;;;18.90;12.33;;;;;;;6.75;96.41;99995.26;2173455;81;20980;-84
2022/10/28 00:19:30;;;;;;;23.33;12.90;;;;;;;6.71;95.90;99998.12;2173249;81;21021;-84
2022/10/28 00:22:31;;;;;;;17.30;12.37;;;;;;;6.67;96.01;99997.51;2172821;81;20945;-83
2022/10/28 00:25:31;;;;;;;19.43;13.03;;;;;;;6.62;96.13;99992.52;2173569;81;20953;-84
2022/10/28 00:28:32;;;;;;;20.77;13.93;;;;;;;6.58;96.10;99981.11;2173231;81;21020;-83
2022/10/28 00:31:32;;;;;;;19.30;13.13;;;;;;;6.54;96.09;99984.39;2173364;81;20952;-84
2022/10/28 00:34:32;;;;;;;23.97;14.40;;;;;;;6.52;96.35;99987.73;2173252;81;20996;-83
2022/10/28 00:37:33;;;;;;;28.70;17.63;;;;;;;6.52;96.32;99982.54;2177234;81;21020;-84
2022/10/28 00:40:33;;;;;;;24.03;14.07;;;;;;;6.51;96.29;99971.28;2178422;82;20976;-82
2022/10/28 00:43:34;;;;;;;20.87;11.90;;;;;;;6.49;96.25;99969.02;2171587;82;21305;-84
2022/10/28 00:46:34;;;;;;;18.30;12.00;;;;;;;6.48;96.15;99967.66;2171347;81;20906;-84
2022/10/28 00:49:35;;;;;;;26.40;11.70;;;;;;;6.45;95.98;99961.92;2170966;81;20992;-84
2022/10/28 00:52:38;;;;;;;19.53;11.73;;;;;;;6.44;95.80;99957.95;2171738;81;20969;-83
2022/10/28 00:55:38;;;;;;;18.17;11.60;;;;;;;6.43;95.85;99956.18;2171414;82;20945;-86
2022/10/28 00:58:39;;;;;;;21.13;12.00;;;;;;;6.37;95.38;99951.19;2171525;81;20988;-87
2022/10/28 01:01:39;;;;;;;29.60;13.07;;;;;;;6.38;95.51;99946.48;2171360;81;21411;-86
2022/10/28 01:04:40;;;;;;;15.73;12.37;;;;;;;6.38;95.69;99944.30;2170311;81;20945;-86
2022/10/28 01:07:40;;;;;;;23.70;13.07;;;;;;;6.35;95.53;99933.79;2170638;81;20957;-87
2022/10/28 01:10:40;;;;;;;24.17;15.03;;;;;;;6.31;95.35;99938.36;2171039;81;20933;-87
2022/10/28 01:13:41;;;;;;;22.90;14.23;;;;;;;6.30;96.21;99940.06;2170786;81;20937;-87
2022/10/28 01:16:41;;;;;;;20.30;14.97;;;;;;;6.29;96.04;99930.91;2170893;81;21036;-86
2022/10/28 01:19:42;;;;;;;24.87;15.40;;;;;;;6.26;96.18;99934.25;2170431;82;20992;-86
2022/10/28 01:22:42;;;;;;;20.17;12.93;;;;;;;6.25;96.43;99928.59;2171661;81;20937;-84
2022/10/28 01:25:42;;;;;;;21.03;14.03;;;;;;;6.23;96.05;99933.22;2171752;81;20965;-84
2022/10/28 01:28:43;;;;;;;23.57;13.97;;;;;;;6.22;96.17;99932.34;2172036;81;20992;-83
2022/10/28 01:31:43;;;;;;;47.50;15.13;;;;;;;6.25;96.26;99931.59;2171280;81;20973;-84
2022/10/28 01:34:44;;;;;;;64.43;17.33;;;;;;;6.25;96.40;99926.41;2171890;81;20980;-83
2022/10/28 01:37:45;;;;;;;25.70;13.50;;;;;;;6.25;96.59;99929.00;2171654;81;21044;-84
2022/10/28 01:40:45;;;;;;;22.20;12.43;;;;;;;6.24;96.71;99919.03;2171285;81;20965;-84
2022/10/28 01:43:45;;;;;;;15.53;11.23;;;;;;;6.24;96.43;99912.96;2170849;81;20985;-84
2022/10/28 01:46:45;;;;;;;16.33;11.37;;;;;;;6.21;96.20;99918.00;2171783;81;20984;-84
2022/10/28 01:49:46;;;;;;;23.00;10.53;;;;;;;6.15;95.68;99912.13;2171692;81;21036;-84
2022/10/28 01:52:46;;;;;;;16.60;9.80;;;;;;;6.13;95.74;99907.28;2171710;82;20932;-83
2022/10/28 01:55:47;;;;;;;162.10;19.80;;;;;;;6.14;95.80;99904.28;2171233;81;20948;-84
2022/10/28 01:58:47;;;;;;;58.70;13.27;;;;;;;6.10;95.88;99901.07;2171088;81;21383;-83
2022/10/28 02:01:47;;;;;;;77.53;14.57;;;;;;;6.10;96.06;99904.96;2170434;81;20941;-86
2022/10/28 02:04:48;;;;;;;26.63;12.57;;;;;;;6.11;96.25;99900.25;2171132;81;20949;-83
2022/10/28 02:07:48;;;;;;;16.80;11.43;;;;;;;6.12;96.27;99900.33;2170378;81;21289;-84
2022/10/28 02:10:49;;;;;;;24.97;13.43;;;;;;;6.12;96.17;99899.03;2170762;81;21301;-84
2022/10/28 02:13:49;;;;;;;19.10;11.40;;;;;;;6.12;96.23;99895.14;2172181;81;21008;-84
2022/10/28 02:16:49;;;;;;;21.93;12.57;;;;;;;6.10;95.93;99887.70;2172089;81;21403;-84
2022/10/28 02:19:50;;;;;;;160.13;20.87;;;;;;;6.05;95.82;99881.38;2170805;81;20973;-81
2022/10/28 02:22:50;;;;;;;195.53;24.37;;;;;;;6.05;96.20;99883.98;2170711;81;20901;-85
2022/10/28 02:25:51;;;;;;;41.67;15.90;;;;;;;6.10;96.69;99881.22;2170938;81;20961;-84
2022/10/28 02:28:51;;;;;;;23.10;15.00;;;;;;;6.11;96.89;99881.70;2170244;81;20925;-84
2022/10/28 02:31:52;;;;;;;22.20;15.20;;;;;;;6.11;96.52;99886.00;2170379;81;21297;-84
2022/10/28 02:34:52;;;;;;;18.13;14.90;;;;;;;6.09;96.46;99887.22;2171470;81;20957;-84
2022/10/28 02:37:52;;;;;;;20.77;15.73;;;;;;;6.09;96.62;99895.00;2171436;81;20993;-84
2022/10/28 02:40:53;;;;;;;22.57;16.67;;;;;;;6.11;96.58;99889.48;2171658;81;20945;-84
2022/10/28 02:43:56;;;;;;;31.27;15.77;;;;;;;6.09;96.52;99892.41;2170713;81;20921;-84
2022/10/28 02:46:56;;;;;;;22.23;15.90;;;;;;;6.03;96.94;99885.20;2172316;81;20913;-84
2022/10/28 02:49:57;;;;;;;26.83;18.33;;;;;;;6.03;96.94;99885.20;2170833;81;20957;-87
2022/10/28 02:52:57;;;;;;;20.50;14.83;;;;;;;6.04;96.79;99887.39;2170077;81;20973;-86
2022/10/28 02:55:57;;;;;;;19.07;12.77;;;;;;;6.01;96.23;99880.77;2170045;81;21294;-87
2022/10/28 02:58:58;;;;;;;13.70;11.73;;;;;;;5.99;96.00;99878.52;2169497;81;21042;-86
2022/10/28 03:01:58;;;;;;;20.63;12.57;;;;;;;5.95;95.78;99872.70;2170685;81;21327;-85
2022/10/28 03:04:59;;;;;;;14.93;11.50;;;;;;;5.94;95.87;99870.94;2170217;81;20929;-82
2022/10/28 03:07:59;;;;;;;38.27;12.90;;;;;;;5.94;95.85;99865.75;2170558;81;20965;-83
2022/10/28 03:10:59;;;;;;;22.00;13.60;;;;;;;5.92;96.04;99863.50;2170838;82;20949;-84
2022/10/28 03:14:00;;;;;;;20.10;13.10;;;;;;;5.93;96.05;99861.38;2171550;81;20941;-83
2022/10/28 03:17:00;;;;;;;23.13;13.27;;;;;;;5.93;95.81;99856.20;2170193;81;20981;-84
2022/10/28 03:20:01;;;;;;;24.53;12.83;;;;;;;5.92;95.84;99857.91;2170335;81;21005;-83
2022/10/28 03:23:01;;;;;;;27.27;14.13;;;;;;;5.92;95.79;99855.72;2171108;81;20988;-84
2022/10/28 03:26:02;;;;;;;23.97;13.20;;;;;;;5.90;95.91;99856.05;2170398;81;21062;-84
2022/10/28 03:29:02;;;;;;;19.33;13.87;;;;;;;5.88;95.74;99851.18;2172147;81;20969;-84
2022/10/28 03:32:02;;;;;;;24.97;16.07;;;;;;;5.86;95.74;99855.41;2173361;81;20914;-84
2022/10/28 03:35:03;;;;;;;26.90;15.73;;;;;;;5.84;95.76;99849.27;2171582;81;21325;-85
2022/10/28 03:38:03;;;;;;;29.17;17.17;;;;;;;5.84;96.19;99855.73;2170896;81;20945;-85
2022/10/28 03:41:04;;;;;;;26.10;16.23;;;;;;;5.91;97.11;99855.24;2171919;81;21027;-83
2022/10/28 03:44:04;;;;;;;21.97;15.13;;;;;;;5.92;96.89;99854.42;2170825;81;20976;-83
2022/10/28 03:47:04;;;;;;;20.00;14.33;;;;;;;5.87;95.85;99850.30;2171098;81;21031;-83
2022/10/28 03:50:05;;;;;;;28.30;15.77;;;;;;;5.80;95.29;99852.12;2167960;81;21123;-85
2022/10/28 03:53:05;;;;;;;23.23;15.70;;;;;;;5.75;95.93;99846.72;2169242;81;21012;-83
2022/10/28 03:56:06;;;;;;;44.17;24.13;;;;;;;5.70;96.04;99832.67;2169692;81;20973;-83
2022/10/28 03:59:06;;;;;;;25.83;16.93;;;;;;;5.75;97.54;99829.00;2169576;81;21325;-86
2022/10/28 04:02:06;;;;;;;72.27;24.00;;;;;;;5.80;97.15;99835.69;2171008;82;21023;-85
2022/10/28 04:05:07;;;;;;;37.00;21.10;;;;;;;5.84;98.05;99842.78;2169179;81;20981;-85
2022/10/28 04:08:07;;;;;;;47.00;23.83;;;;;;;5.92;98.25;99846.66;2167710;81;21000;-85
2022/10/28 04:11:08;;;;;;;32.07;21.43;;;;;;;5.95;98.35;99836.42;2168073;81;21457;-86
2022/10/28 04:14:08;;;;;;;26.43;20.67;;;;;;;5.96;98.13;99836.91;2168593;81;21262;-86
2022/10/28 04:17:08;;;;;;;162.10;30.63;;;;;;;5.96;97.56;99840.79;2169016;81;20976;-76
2022/10/28 04:20:09;;;;;;;136.77;24.83;;;;;;;5.98;98.11;99841.34;2169335;81;21380;-86
2022/10/28 04:23:09;;;;;;;65.60;23.50;;;;;;;6.05;98.56;99838.62;2168682;81;20948;-84
2022/10/28 04:26:10;;;;;;;36.93;20.90;;;;;;;6.11;98.30;99841.52;2167194;81;21407;-85
2022/10/28 04:29:10;;;;;;;31.33;20.40;;;;;;;6.12;98.29;99840.70;2167808;81;21031;-85
2022/10/28 04:32:11;;;;;;;33.67;21.50;;;;;;;6.10;97.53;99838.45;2168487;82;21039;-83
2022/10/28 04:35:11;;;;;;;29.93;20.80;;;;;;;6.08;97.66;99833.61;2169630;81;21004;-82
2022/10/28 04:38:12;;;;;;;32.17;19.50;;;;;;;6.03;97.05;99823.00;2169505;81;21096;-83
2022/10/28 04:41:12;;;;;;;28.07;20.37;;;;;;;6.00;97.07;99818.08;2170089;82;20995;-83
2022/10/28 04:44:12;;;;;;;25.10;19.57;;;;;;;5.98;96.94;99810.65;2168428;81;21191;-85
2022/10/28 04:47:13;;;;;;;83.53;23.87;;;;;;;5.97;97.21;99802.39;2168648;81;20984;-82
2022/10/28 04:50:13;;;;;;;65.53;23.33;;;;;;;6.01;97.80;99803.02;2169405;81;21356;-86
2022/10/28 04:53:13;;;;;;;46.17;22.90;;;;;;;6.02;98.15;99794.42;2169436;81;21463;-84
2022/10/28 04:56:14;;;;;;;35.77;21.23;;;;;;;6.05;98.22;99801.03;2170652;81;21031;-86
2022/10/28 04:59:14;;;;;;;37.40;23.17;;;;;;;6.02;97.68;99803.48;2171095;81;20968;-86
2022/10/28 05:02:15;;;;;;;39.20;27.57;;;;;;;6.04;98.33;99808.33;2168965;81;21484;-83
2022/10/28 05:05:15;;;;;;;84.03;25.27;;;;;;;6.13;99.61;99818.27;2170187;81;20932;-85
2022/10/28 05:08:15;;;;;;;35.17;21.77;;;;;;;6.18;99.07;99818.94;2169811;81;21376;-85
2022/10/28 05:11:16;;;;;;;33.70;22.27;;;;;;;6.13;98.21;99813.08;2168923;81;20968;-85
2022/10/28 05:14:16;;;;;;;29.53;22.10;;;;;;;6.13;98.21;99813.08;2168570;81;20941;-85
2022/10/28 05:17:17;;;;;;;30.43;22.03;;;;;;;6.15;98.33;99811.03;2167400;82;21011;-84
2022/10/28 05:20:19;;;;;;;36.60;23.63;;;;;;;6.15;98.64;99806.25;2157070;82;21035;-85
2022/10/28 05:23:22;;;;;;;53.17;24.60;;;;;;;6.14;98.20;99802.77;2170134;81;21311;-85
2022/10/28 05:26:22;;;;;;;57.50;25.20;;;;;;;6.14;98.37;99798.89;2158304;82;20975;-85
2022/10/28 05:29:22;;;;;;;39.73;21.20;;;;;;;6.20;98.85;99799.16;2167292;82;21007;-84
2022/10/28 05:32:23;;;;;;;41.87;21.87;;;;;;;6.19;98.63;99786.13;2168314;81;21675;-83
2022/10/28 05:35:23;;;;;;;45.37;21.67;;;;;;;6.17;98.61;99775.69;2167010;81;21400;-84
2022/10/28 05:38:23;;;;;;;926.87;89.77;;;;;;;6.18;98.47;99780.47;2168351;81;21025;-84
2022/10/28 05:41:24;;;;;;;56.47;26.43;;;;;;;6.24;100.00;99793.28;2169510;81;21019;-84
2022/10/28 05:44:24;;;;;;;39.70;23.43;;;;;;;6.36;100.00;99796.83;2168067;81;20976;-84
2022/10/28 05:47:25;;;;;;;30.60;22.80;;;;;;;6.48;100.00;99794.77;2169146;81;20941;-86
2022/10/28 05:50:25;;;;;;;36.53;22.60;;;;;;;6.47;99.39;99791.69;2166881;81;21379;-85
2022/10/28 05:53:25;;;;;;;220.30;32.03;;;;;;;6.45;98.78;99795.92;2166300;81;20973;-82
2022/10/28 05:56:26;;;;;;;63.03;25.67;;;;;;;6.47;99.31;99786.91;2166576;81;20941;-84
2022/10/28 05:59:26;;;;;;;59.73;24.60;;;;;;;6.56;99.53;99800.28;2170029;81;20984;-83
2022/10/28 06:02:27;;;;;;;79.17;25.13;;;;;;;6.66;100.00;99807.62;2167834;81;21103;-84
2022/10/28 06:05:27;;;;;;;51.17;24.17;;;;;;;6.78;100.00;99811.16;2169158;81;20980;-82
2022/10/28 06:08:27;;;;;;;39.07;22.83;;;;;;;6.79;98.82;99806.44;2169186;81;21000;-81
2022/10/28 06:11:28;;;;;;;74.97;26.23;;;;;;;6.76;98.15;99795.93;2167438;81;21020;-82
2022/10/28 06:14:31;;;;;;;65.53;27.60;;;;;;;6.76;98.06;99804.60;2169088;81;20989;-83
2022/10/28 06:17:31;;;;;;;67.97;24.63;;;;;;;6.81;98.40;99806.98;2167934;81;21292;-81
2022/10/28 06:20:32;;;;;;;59.30;24.37;;;;;;;6.92;98.86;99808.31;2167609;81;21770;-83
2022/10/28 06:23:32;;;;;;;31.93;21.40;;;;;;;6.98;99.55;99808.59;2169148;81;20972;-81
2022/10/28 06:26:33;;;;;;;95.17;27.20;;;;;;;7.07;99.50;99811.98;2170055;81;21004;-82
2022/10/28 06:29:33;;;;;;;47.70;22.60;;;;;;;7.16;99.48;99812.36;2170980;81;20929;-81
2022/10/28 06:32:33;;;;;;;37.17;22.43;;;;;;;7.27;99.66;99801.10;2169162;81;21051;-82
2022/10/28 06:35:34;;;;;;;35.03;23.43;;;;;;;7.41;100.00;99805.55;2168460;81;21415;-83
2022/10/28 06:38:34;;;;;;;64.87;26.13;;;;;;;7.53;100.00;99804.31;2168991;81;21050;-81
2022/10/28 06:41:35;;;;;;;28.67;22.20;;;;;;;7.70;100.00;99814.48;2167409;81;21067;-80
2022/10/28 06:44:35;;;;;;;26.80;22.30;;;;;;;7.80;100.00;99817.52;2168240;81;20957;-82
2022/10/28 06:47:35;;;;;;;29.27;21.90;;;;;;;7.90;100.00;99823.95;2168690;81;21032;-82
2022/10/28 06:50:37;;;;;;;25.87;21.43;;;;;;;8.07;100.00;99815.06;2169784;81;21000;-82
2022/10/28 06:53:36;;;;;;;737.97;54.40;;;;;;;8.17;100.00;99811.98;2166803;81;20956;-81
2022/10/28 06:56:37;;;;;;;93.80;23.93;;;;;;;8.29;100.00;99813.72;2168842;81;21403;-84
2022/10/28 06:59:37;;;;;;;57.27;23.07;;;;;;;8.42;100.00;99810.30;2167839;81;20972;-81
2022/10/28 07:02:37;;;;;;;32.50;21.30;;;;;;;8.58;100.00;99810.00;2170066;81;21043;-82
2022/10/28 07:05:38;;;;;;;54.80;22.67;;;;;;;8.81;100.00;99815.63;2169192;81;20945;-83
2022/10/28 07:08:38;;;;;;;40.47;19.87;;;;;;;9.00;100.00;99811.91;2170784;81;20968;-84
2022/10/28 07:11:39;;;;;;;32.90;20.60;;;;;;;9.20;99.62;99806.95;2171242;81;20961;-83
2022/10/28 07:14:39;;;;;;;25.83;20.43;;;;;;;9.46;99.34;99807.77;2169166;81;20996;-83
2022/10/28 07:17:40;;;;;;;24.60;20.47;;;;;;;9.69;98.76;99807.22;2168675;81;21405;-83
2022/10/28 07:20:40;;;;;;;34.97;19.30;;;;;;;9.94;99.01;99810.14;2167058;81;20945;-82
2022/10/28 07:23:40;;;;;;;45.60;20.67;;;;;;;10.25;98.76;99807.14;2167268;81;21395;-82
2022/10/28 07:26:41;;;;;;;57.35;21.48;;;;;;;10.52;98.24;99814.47;2168953;81;20977;-83
2022/10/28 07:29:41;;;;;;;42.53;20.65;;;;;;;10.77;97.85;99822.54;2167354;81;21023;-83
2022/10/28 07:32:42;;;;;;;34.73;20.23;;;;;;;11.03;97.90;99812.77;2167300;81;21012;-83
2022/10/28 07:35:43;;;;;;;22.67;19.15;;;;;;;11.29;97.76;99810.83;2167948;81;20937;-81
2022/10/28 07:38:43;;;;;;;24.40;19.75;;;;;;;11.56;97.83;99817.14;2169566;81;21498;-83
2022/10/28 07:41:43;;;;;;;61.80;21.60;;;;;;;11.83;97.69;99812.56;2167615;81;21027;-81
2022/10/28 07:44:43;;;;;;;30.00;19.98;;;;;;;12.09;96.95;99803.97;2166038;81;20981;-81
2022/10/28 07:47:44;;;;;;;41.23;22.13;;;;;;;12.36;96.87;99806.30;2169368;81;21139;-83
2022/10/28 07:50:44;;;;;;;42.23;21.95;;;;;;;12.70;96.53;99808.70;2167139;81;21001;-83
2022/10/28 07:53:45;;;;;;;46.15;22.15;;;;;;;13.01;96.06;99804.05;2168350;81;21867;-83
2022/10/28 07:56:45;;;;;;;54.08;23.83;;;;;;;13.30;95.31;99801.94;2167213;81;21028;-82
2022/10/28 07:59:45;;;;;;;41.00;22.20;;;;;;;13.60;94.59;99793.23;2168700;81;20996;-81
2022/10/28 08:02:46;;;;;;;45.60;20.10;;;;;;;13.81;93.97;99791.77;2168470;81;21019;-80
2022/10/28 08:05:46;;;;;;;39.38;20.25;;;;;;;14.06;93.23;99795.64;2166887;81;21364;-82
2022/10/28 08:08:47;;;;;;;24.10;19.12;;;;;;;14.25;92.81;99794.58;2166175;81;21947;-81
2022/10/28 08:11:47;;;;;;;31.52;18.30;;;;;;;14.33;91.75;99796.86;2166776;81;21280;-82
2022/10/28 08:14:47;;;;;;;26.85;18.37;;;;;;;14.45;91.66;99796.16;2166435;82;21060;-81
2022/10/28 08:17:48;;;;;;;26.35;17.92;;;;;;;14.59;91.28;99793.25;2165290;81;21027;-80
2022/10/28 08:20:53;;;;;;;23.22;16.97;;;;;;;14.78;91.05;99797.41;2158826;82;21044;-82
2022/10/28 08:23:56;;;;;;;29.05;17.90;;;;;;;14.96;90.64;99789.70;2163930;82;21012;-80
2022/10/28 08:26:56;;;;;;;38.42;21.05;;;;;;;15.24;90.09;99789.50;2165744;81;20981;-82
2022/10/28 08:29:56;;;;;;;46.95;18.57;;;;;;;15.46;89.33;99786.60;2164209;81;20949;-81
2022/10/28 08:32:57;;;;;;;23.87;16.52;;;;;;;15.66;88.86;99776.28;2167365;81;21369;-81
2022/10/28 08:35:57;;;;;;;21.23;14.83;;;;;;;15.73;88.04;99771.49;2167277;81;21024;-80
2022/10/28 08:39:01;;;;;;;46.63;17.10;;;;;;;15.74;87.31;99768.87;2168074;81;21450;-82
2022/10/28 08:42:01;;;;;;;28.67;15.95;;;;;;;15.64;87.78;99764.86;2169346;81;20957;-79
2022/10/28 08:45:01;;;;;;;80.70;19.52;;;;;;;15.61;88.12;99765.72;2169631;81;20928;-84
2022/10/28 08:48:02;;;;;;;20.45;12.78;;;;;;;15.62;88.32;99770.55;2170249;81;21268;-83
2022/10/28 08:51:02;;;;;;;41.83;13.40;;;;;;;15.67;87.82;99772.34;2169942;81;20992;-83
2022/10/28 08:54:03;;;;;;;17.25;11.95;;;;;;;15.73;88.67;99772.81;2170396;81;21036;-82
2022/10/28 08:57:03;;;;;;;16.55;11.78;;;;;;;15.83;88.31;99764.09;2171672;81;21486;-83
2022/10/28 09:00:04;;;;;;;12.68;10.03;;;;;;;16.04;87.58;99771.21;2171057;82;21047;-80
2022/10/28 09:03:04;;;;;;;19.30;9.93;;;;;;;16.21;87.35;99763.83;2170419;82;21113;-80
2022/10/28 09:06:04;;;;;;;17.70;9.88;;;;;;;16.40;87.14;99758.61;2169951;81;21020;-82
2022/10/28 09:09:05;;;;;;;15.85;9.65;;;;;;;16.58;86.45;99752.55;2171989;81;20937;-82
2022/10/28 09:12:05;;;;;;;10.35;9.00;;;;;;;16.75;85.65;99757.44;2171555;81;21043;-82
2022/10/28 09:15:06;;;;;;;11.73;9.45;;;;;;;16.83;84.11;99752.61;2172638;81;21019;-82
2022/10/28 09:18:06;;;;;;;10.58;9.15;;;;;;;17.00;84.91;99759.66;2172649;81;21462;-82
2022/10/28 09:21:07;;;;;;;19.32;9.50;;;;;;;17.12;83.55;99761.86;2172302;81;20976;-83
2022/10/28 09:24:07;;;;;;;9.63;7.15;;;;;;;17.25;83.80;99765.81;2171986;81;20992;-81
2022/10/28 09:27:07;;;;;;;11.05;8.55;;;;;;;17.36;80.66;99761.44;2171124;81;20980;-80
2022/10/28 09:30:08;;;;;;;10.40;7.40;;;;;;;17.43;80.89;99761.88;2168563;81;21027;-81
2022/10/28 09:33:27;;;;;;;12.65;8.60;;;;;;;17.53;79.99;99754.81;2169800;82;21052;-82
2022/10/28 09:36:46;;;;;;;12.95;7.87;;;;;;;17.68;79.48;99747.78;2171392;82;21082;-82
2022/10/28 09:39:46;;;;;;;14.75;7.85;;;;;;;17.79;77.75;99753.03;2175582;81;21035;-81
2022/10/28 09:42:47;;;;;;;9.40;7.47;;;;;;;17.89;78.79;99753.88;2173807;82;20965;-81
2022/10/28 09:45:47;;;;;;;8.13;6.97;;;;;;;18.05;78.64;99760.86;2169777;82;20976;-81
2022/10/28 09:48:47;;;;;;;10.58;7.25;;;;;;;18.23;78.10;99761.27;2170606;82;20969;-81
2022/10/28 09:51:48;;;;;;;9.98;6.62;;;;;;;18.45;77.05;99762.47;2169309;81;21036;-82
2022/10/28 09:55:06;;;;;;;8.75;6.87;;;;;;;18.63;75.42;99755.35;2170022;81;21060;-82
2022/10/28 09:58:07;;;;;;;35.58;8.40;;;;;;;18.74;72.76;99746.91;2169759;81;20988;-78
2022/10/28 10:01:07;;;;;;;11.80;7.65;;;;;;;18.84;74.80;99744.63;2169276;81;20956;-81
2022/10/28 10:04:26;;;;;;;9.23;6.65;;;;;;;19.07;74.01;99751.06;2170062;81;21095;-84
2022/10/28 10:07:27;;;;;;;9.08;6.53;;;;;;;19.24;71.75;99757.57;2168878;81;20996;-86
2022/10/28 10:10:27;;;;;;;12.73;6.40;;;;;;;19.19;72.51;99750.11;2169720;81;21562;-82
2022/10/28 10:13:28;;;;;;;14.13;8.15;;;;;;;19.27;70.93;99745.63;2169674;82;21389;-83
2022/10/28 10:16:28;;;;;;;15.30;7.95;;;;;;;19.41;72.59;99747.70;2169596;81;20937;-82
2022/10/28 10:19:47;;;;;;;22.90;8.03;;;;;;;19.44;72.45;99748.13;2169553;82;21064;-84
2022/10/28 10:22:48;;;;;;;11.90;6.60;;;;;;;19.38;72.52;99746.41;2168702;82;20969;-82
2022/10/28 10:25:48;;;;;;;34.67;8.25;;;;;;;19.46;72.41;99751.19;2126774;83;20979;-80
2022/10/28 10:28:48;;;;;;;11.03;5.95;;;;;;;19.56;71.47;99739.64;2126897;84;21513;-82
2022/10/28 10:31:49;;;;;;;7.67;5.60;;;;;;;19.52;69.77;99740.57;2126850;84;21011;-80
2022/10/28 10:34:49;;;;;;;11.25;6.12;;;;;;;19.50;70.25;99735.70;2126745;84;21071;-83
2022/10/28 10:37:49;;;;;;;40.10;8.15;;;;;;;19.55;70.71;99737.89;2125986;84;21015;-84
2022/10/28 10:40:50;;;;;;;10.60;6.30;;;;;;;19.55;70.28;99731.27;2126850;83;21047;-83
2022/10/28 10:43:50;;;;;;;8.08;5.85;;;;;;;19.51;71.09;99729.95;2126489;83;20960;-81
2022/10/28 10:47:09;;;;;;;10.10;6.70;;;;;;;19.41;70.40;99723.43;2126057;83;21043;-84
2022/10/28 10:50:28;;;;;;;7.87;5.73;;;;;;;19.26;70.43;99726.23;2125878;83;21087;-80
2022/10/28 10:53:28;;;;;;;8.95;6.37;;;;;;;19.28;70.41;99726.21;2126277;83;21020;-81
2022/10/28 10:56:29;;;;;;;8.90;5.67;;;;;;;19.41;69.91;99722.55;2125972;83;20979;-80
2022/10/28 10:59:29;;;;;;;9.75;5.75;;;;;;;19.60;69.73;99725.92;2123750;83;21024;-80
2022/10/28 11:02:30;;;;;;;8.33;5.15;;;;;;;19.78;69.33;99718.22;2124404;83;21328;-80
2022/10/28 11:05:30;;;;;;;105.43;12.15;;;;;;;19.80;68.74;99716.43;2123582;83;21114;-79
2022/10/28 11:08:31;;;;;;;9.55;5.80;;;;;;;19.75;69.17;99714.28;2168271;82;21015;-81
2022/10/28 11:11:31;;;;;;;17.05;5.80;;;;;;;19.69;68.40;99713.45;2169420;81;21035;-81
2022/10/28 11:14:31;;;;;;;11.63;5.67;;;;;;;19.62;68.78;99710.45;2169559;81;20960;-80
2022/10/28 11:17:50;;;;;;;55.75;8.13;;;;;;;19.59;69.79;99702.53;2170339;82;21455;-80
2022/10/28 11:20:51;;;;;;;57.10;8.43;;;;;;;19.55;69.54;99702.14;2170911;81;21003;-79
2022/10/28 11:23:51;;;;;;;21.00;6.17;;;;;;;19.48;69.99;99696.89;2169099;81;21004;-79
2022/10/28 11:26:51;;;;;;;13.30;6.62;;;;;;;19.41;70.10;99706.67;2169513;81;20980;-80
2022/10/28 11:29:52;;;;;;;9.23;5.15;;;;;;;19.30;70.23;99701.48;2169572;81;21442;-81
2022/10/28 11:32:52;;;;;;;13.93;5.83;;;;;;;19.18;70.33;99698.95;2168775;81;21483;-80
2022/10/28 11:36:11;;;;;;;47.30;7.55;;;;;;;19.11;70.46;99701.22;2169089;82;21056;-78
2022/10/28 11:39:30;;;;;;;10.13;5.47;;;;;;;19.10;70.45;99702.12;2167346;81;21091;-80
2022/10/28 11:42:31;;;;;;;10.48;5.67;;;;;;;19.08;70.52;99697.28;2164058;81;21506;-79
2022/10/28 11:45:31;;;;;;;11.97;5.60;;;;;;;19.07;70.49;99694.17;2165416;81;21129;-79
2022/10/28 11:48:31;;;;;;;11.15;5.47;;;;;;;19.05;70.87;99693.31;2167179;81;21000;-79
2022/10/28 11:51:32;;;;;;;14.20;5.78;;;;;;;19.03;69.68;99693.77;2166917;81;21042;-79
2022/10/28 11:54:32;;;;;;;8.08;4.35;;;;;;;18.96;70.49;99694.27;2165649;81;21543;-79
2022/10/28 11:57:33;;;;;;;6.87;4.75;;;;;;;18.95;70.81;99693.84;2166055;81;21071;-79
2022/10/28 12:00:53;;;;;;;12.13;5.47;;;;;;;18.95;70.25;99694.28;2164391;82;21064;-80
2022/10/28 12:03:53;;;;;;;13.05;5.10;;;;;;;18.92;69.95;99696.95;2166533;81;21036;-80
2022/10/28 12:06:53;;;;;;;8.38;5.15;;;;;;;18.91;69.80;99697.40;2165516;81;20996;-80
2022/10/28 12:09:54;;;;;;;8.03;4.75;;;;;;;18.97;70.44;99705.28;2162519;81;21009;-79
2022/10/28 12:13:12;;;;;;;14.75;5.58;;;;;;;19.04;69.85;99695.52;2161719;82;21542;-81
2022/10/28 12:16:31;;;;;;;11.68;5.58;;;;;;;19.12;70.42;99696.81;2161453;82;21075;-80
2022/10/28 12:19:32;;;;;;;10.58;5.55;;;;;;;19.15;70.08;99693.69;2162282;82;21007;-80
2022/10/28 12:22:32;;;;;;;10.40;6.12;;;;;;;19.19;70.03;99688.80;2161052;82;21444;-81
2022/10/28 12:25:33;;;;;;;15.90;6.22;;;;;;;19.26;70.60;99694.47;2163502;81;21034;-78
2022/10/28 12:28:33;;;;;;;12.03;6.05;;;;;;;19.33;69.99;99687.34;2161592;81;21043;-81
2022/10/28 12:31:34;;;;;;;8.25;5.60;;;;;;;19.32;69.93;99688.23;2164627;81;21515;-80
2022/10/28 12:34:52;;;;;;;8.40;5.50;;;;;;;19.29;69.88;99682.97;2163617;82;21249;-81
2022/10/28 12:37:53;;;;;;;9.75;5.83;;;;;;;19.28;69.89;99677.25;2163201;81;21070;-80
2022/10/28 12:40:53;;;;;;;13.25;6.70;;;;;;;19.27;70.54;99677.69;2165077;81;21289;-80
2022/10/28 12:44:12;;;;;;;12.98;7.08;;;;;;;19.31;70.43;99671.47;2166533;82;21503;-79
2022/10/28 12:47:12;;;;;;;17.62;7.45;;;;;;;19.31;70.12;99670.59;2165852;81;21238;-80
2022/10/28 12:50:13;;;;;;;14.70;7.28;;;;;;;19.32;70.55;99667.94;2166401;81;21018;-80
2022/10/28 12:53:13;;;;;;;43.10;9.38;;;;;;;19.38;70.56;99666.98;2166327;81;21023;-80
2022/10/28 12:56:14;;;;;;;19.67;7.30;;;;;;;19.42;70.30;99668.71;2166193;81;21426;-79
2022/10/28 12:59:14;;;;;;;17.17;7.70;;;;;;;19.43;70.64;99658.55;2166274;82;21090;-79
2022/10/28 13:02:14;;;;;;;1642.78;157.72;;;;;;;19.39;70.32;99660.80;2167271;81;20999;-80
2022/10/28 13:05:33;;;;;;;28.92;9.05;;;;;;;19.35;70.21;99660.41;2166274;82;21480;-78
2022/10/28 13:08:34;;;;;;;19.20;8.25;;;;;;;19.33;70.50;99656.90;2166880;82;21028;-80
2022/10/28 13:11:34;;;;;;;13.88;7.53;;;;;;;19.32;70.45;99661.31;2167762;81;21566;-80
2022/10/28 13:14:35;;;;;;;14.25;7.47;;;;;;;19.27;70.01;99658.28;2168657;81;21000;-80
2022/10/28 13:17:35;;;;;;;14.55;7.90;;;;;;;19.23;70.20;99652.59;2168743;81;21048;-81
2022/10/28 13:20:35;;;;;;;13.78;7.87;;;;;;;19.22;70.68;99651.72;2169894;81;21023;-81
2022/10/28 13:23:36;;;;;;;19.20;9.25;;;;;;;19.18;70.62;99652.64;2169803;81;20960;-79
2022/10/28 13:26:55;;;;;;;14.65;8.03;;;;;;;19.15;71.09;99650.02;2167499;82;21017;-79
2022/10/28 13:30:15;;;;;;;15.23;8.30;;;;;;;19.17;71.40;99650.01;2167165;82;21373;-81
2022/10/28 13:33:14;;;;;;;64.95;11.57;;;;;;;19.15;71.04;99652.67;2167582;81;20968;-80
2022/10/28 13:36:15;;;;;;;49.63;11.78;;;;;;;19.11;71.05;99654.04;2167169;81;21055;-80
2022/10/28 13:39:15;;;;;;;16.00;8.58;;;;;;;19.09;71.01;99648.31;2167512;81;22114;-80
2022/10/28 13:42:18;;;;;;;16.95;8.20;;;;;;;19.07;71.05;99650.52;2167007;81;20968;-81
2022/10/28 13:45:16;;;;;;;13.38;8.73;;;;;;;18.99;70.90;99636.03;2168729;81;21333;-80
2022/10/28 13:48:35;;;;;;;16.10;9.18;;;;;;;18.87;71.30;99644.09;2168781;82;21012;-81
2022/10/28 13:51:35;;;;;;;602.50;59.35;;;;;;;18.76;71.62;99641.98;2170431;81;20992;-76
2022/10/28 13:54:35;;;;;;;32.42;9.90;;;;;;;18.67;71.75;99651.31;2169319;81;21000;-80
2022/10/28 13:57:36;;;;;;;28.75;9.55;;;;;;;18.60;72.19;99652.22;2169207;81;21032;-81
2022/10/28 14:00:36;;;;;;;17.62;8.90;;;;;;;18.53;72.27;99651.83;2170232;81;21297;-81
2022/10/28 14:03:37;;;;;;;19.75;9.18;;;;;;;18.48;72.47;99650.98;2169795;81;20933;-81